createdAt,value
2018-03-20T00:00:07.984Z,1009.31
2018-03-20T00:01:07.952Z,1009.28
2018-03-20T00:02:07.910Z,1009.22
2018-03-20T00:03:07.876Z,1009.26
2018-03-20T00:04:07.850Z,1009.24
2018-03-20T00:05:07.807Z,1009.27
2018-03-20T00:06:08.625Z,1009.30
2018-03-20T00:07:07.746Z,1009.30
2018-03-20T00:08:07.721Z,1009.14
2018-03-20T00:09:07.678Z,1009.21
2018-03-20T00:10:07.645Z,1009.16
2018-03-20T00:11:07.613Z,1009.17
2018-03-20T00:12:07.576Z,1009.14
2018-03-20T00:13:07.550Z,1009.20
2018-03-20T00:14:07.518Z,1009.13
2018-03-20T00:15:07.484Z,1009.25
2018-03-20T00:16:07.445Z,1009.22
2018-03-20T00:17:07.414Z,1009.16
2018-03-20T00:18:07.386Z,1009.09
2018-03-20T00:19:07.355Z,1009.00
2018-03-20T00:20:07.324Z,1009.13
2018-03-20T00:21:07.290Z,1009.07
2018-03-20T00:22:07.252Z,1009.14
2018-03-20T00:23:07.220Z,1009.14
2018-03-20T00:24:07.187Z,1009.05
2018-03-20T00:25:07.151Z,1009.01
2018-03-20T00:26:07.116Z,1008.98
2018-03-20T00:27:07.096Z,1009.03
2018-03-20T00:28:07.053Z,1008.97
2018-03-20T00:29:07.375Z,1009.02
2018-03-20T00:30:06.986Z,1008.89
2018-03-20T00:31:06.955Z,1008.89
2018-03-20T00:32:06.920Z,1008.88
2018-03-20T00:33:06.891Z,1008.79
2018-03-20T00:34:06.860Z,1008.87
2018-03-20T00:35:06.826Z,1008.87
2018-03-20T00:36:06.791Z,1008.93
2018-03-20T00:37:06.767Z,1008.86
2018-03-20T00:38:06.737Z,1008.84
2018-03-20T00:39:07.000Z,1008.80
2018-03-20T00:40:06.660Z,1008.78
2018-03-20T00:41:06.628Z,1008.75
2018-03-20T00:42:06.593Z,1008.73
2018-03-20T00:43:06.565Z,1008.84
2018-03-20T00:44:06.530Z,1008.75
2018-03-20T00:45:06.507Z,1008.75
2018-03-20T00:46:06.473Z,1008.69
2018-03-20T00:47:06.433Z,1008.74
2018-03-20T00:48:06.398Z,1008.67
2018-03-20T00:49:06.372Z,1008.59
2018-03-20T00:50:06.334Z,1008.64
2018-03-20T00:51:06.306Z,1008.65
2018-03-20T00:52:06.271Z,1008.59
2018-03-20T00:53:06.241Z,1008.68
2018-03-20T00:54:06.207Z,1008.59
2018-03-20T00:55:06.175Z,1008.55
2018-03-20T00:56:06.137Z,1008.54
2018-03-20T00:57:06.104Z,1008.56
2018-03-20T00:58:06.072Z,1008.52
2018-03-20T00:59:06.040Z,1008.52
2018-03-20T01:00:06.010Z,1008.47
2018-03-20T01:01:05.971Z,1008.51
2018-03-20T01:02:05.940Z,1008.51
2018-03-20T01:03:05.912Z,1008.46
2018-03-20T01:04:05.882Z,1008.51
2018-03-20T01:05:05.850Z,1008.62
2018-03-20T01:06:05.828Z,1008.41
2018-03-20T01:07:05.788Z,1008.52
2018-03-20T01:08:05.755Z,1008.47
2018-03-20T01:09:05.712Z,1008.49
2018-03-20T01:10:05.678Z,1008.51
2018-03-20T01:11:05.649Z,1008.51
2018-03-20T01:12:05.624Z,1008.52
2018-03-20T01:13:05.587Z,1008.47
2018-03-20T01:14:05.548Z,1008.49
2018-03-20T01:15:05.523Z,1008.49
2018-03-20T01:16:05.494Z,1008.51
2018-03-20T01:17:05.456Z,1008.45
2018-03-20T01:18:05.420Z,1008.40
2018-03-20T01:19:05.388Z,1008.51
2018-03-20T01:20:05.353Z,1008.46
2018-03-20T01:21:05.347Z,1008.43
2018-03-20T01:22:05.292Z,1008.46
2018-03-20T01:23:05.258Z,1008.52
2018-03-20T01:24:05.223Z,1008.48
2018-03-20T01:25:05.197Z,1008.40
2018-03-20T01:26:05.166Z,1008.41
2018-03-20T01:27:05.130Z,1008.36
2018-03-20T01:28:05.095Z,1008.30
2018-03-20T01:29:05.067Z,1008.41
2018-03-20T01:30:05.032Z,1008.37
2018-03-20T01:31:04.998Z,1008.22
2018-03-20T01:32:04.964Z,1008.28
2018-03-20T01:33:04.934Z,1008.23
2018-03-20T01:34:04.903Z,1008.26
2018-03-20T01:35:04.870Z,1008.28
2018-03-20T01:36:04.837Z,1008.29
2018-03-20T01:37:04.806Z,1008.26
2018-03-20T01:38:04.781Z,1008.31
2018-03-20T01:39:04.747Z,1008.29
2018-03-20T01:40:04.714Z,1008.30
2018-03-20T01:41:04.679Z,1008.28
2018-03-20T01:42:04.644Z,1008.21
2018-03-20T01:43:04.608Z,1008.31
2018-03-20T01:44:04.576Z,1008.28
2018-03-20T01:45:04.548Z,1008.23
2018-03-20T01:46:04.526Z,1008.13
2018-03-20T01:47:04.482Z,1008.12
2018-03-20T01:48:04.450Z,1008.12
2018-03-20T01:49:04.424Z,1008.11
2018-03-20T01:50:04.386Z,1008.18
2018-03-20T01:51:04.365Z,1008.06
2018-03-20T01:52:04.325Z,1008.13
2018-03-20T01:53:04.289Z,1008.00
2018-03-20T01:54:04.258Z,1007.97
2018-03-20T01:55:04.240Z,1007.95
2018-03-20T01:56:04.196Z,1008.03
2018-03-20T01:57:04.159Z,1008.05
2018-03-20T01:58:04.127Z,1008.01
2018-03-20T01:59:04.104Z,1008.02
2018-03-20T02:00:04.061Z,1008.08
2018-03-20T02:01:04.026Z,1008.07
2018-03-20T02:02:04.001Z,1008.04
2018-03-20T02:03:03.965Z,1008.03
2018-03-20T02:04:03.935Z,1007.98
2018-03-20T02:05:03.901Z,1007.96
2018-03-20T02:06:03.869Z,1007.94
2018-03-20T02:07:03.838Z,1007.96
2018-03-20T02:08:03.804Z,1008.03
2018-03-20T02:09:03.772Z,1008.02
2018-03-20T02:10:03.742Z,1007.98
2018-03-20T02:11:03.706Z,1008.02
2018-03-20T02:12:03.679Z,1008.02
2018-03-20T02:13:03.651Z,1008.01
2018-03-20T02:14:03.613Z,1008.04
2018-03-20T02:15:03.585Z,1008.02
2018-03-20T02:16:03.545Z,1008.06
2018-03-20T02:17:03.519Z,1008.05
2018-03-20T02:18:03.488Z,1007.98
2018-03-20T02:19:03.458Z,1008.04
2018-03-20T02:20:03.421Z,1008.05
2018-03-20T02:21:03.393Z,1008.02
2018-03-20T02:22:03.363Z,1008.05
2018-03-20T02:23:03.381Z,1008.09
2018-03-20T02:24:03.294Z,1008.05
2018-03-20T02:25:03.259Z,1008.08
2018-03-20T02:26:03.234Z,1008.10
2018-03-20T02:27:03.197Z,1008.09
2018-03-20T02:28:03.198Z,1008.10
2018-03-20T02:29:03.139Z,1008.11
2018-03-20T02:30:03.107Z,1008.10
2018-03-20T02:31:03.070Z,1008.10
2018-03-20T02:32:03.044Z,1008.08
2018-03-20T02:33:03.017Z,1007.86
2018-03-20T02:34:02.981Z,1008.09
2018-03-20T02:35:02.946Z,1008.15
2018-03-20T02:36:02.916Z,1008.13
2018-03-20T02:37:02.880Z,1008.15
2018-03-20T02:38:02.854Z,1008.16
2018-03-20T02:39:02.817Z,1008.15
2018-03-20T02:40:02.788Z,1008.17
2018-03-20T02:41:02.753Z,1008.15
2018-03-20T02:42:02.721Z,1008.12
2018-03-20T02:43:02.697Z,1008.14
2018-03-20T02:44:02.662Z,1008.16
2018-03-20T02:45:02.627Z,1008.18
2018-03-20T02:46:02.600Z,1008.19
2018-03-20T02:47:02.571Z,1008.14
2018-03-20T02:48:02.540Z,1008.20
2018-03-20T02:49:02.503Z,1008.22
2018-03-20T02:50:02.470Z,1008.19
2018-03-20T02:51:02.463Z,1008.13
2018-03-20T02:52:02.411Z,1008.16
2018-03-20T02:53:02.381Z,1008.21
2018-03-20T02:54:02.352Z,1008.19
2018-03-20T02:55:02.319Z,1008.25
2018-03-20T02:56:02.289Z,1008.25
2018-03-20T02:57:02.253Z,1008.28
2018-03-20T02:58:02.233Z,1008.24
2018-03-20T02:59:02.194Z,1008.23
2018-03-20T03:00:02.168Z,1008.23
2018-03-20T03:01:02.127Z,1008.18
2018-03-20T03:02:02.109Z,1008.22
2018-03-20T03:03:02.067Z,1008.25
2018-03-20T03:04:02.080Z,1008.24
2018-03-20T03:05:02.002Z,1008.26
2018-03-20T03:06:01.967Z,1008.19
2018-03-20T03:07:01.942Z,1008.22
2018-03-20T03:08:01.904Z,1008.23
2018-03-20T03:09:01.879Z,1008.22
2018-03-20T03:10:01.844Z,1008.09
2018-03-20T03:11:01.821Z,1008.17
2018-03-20T03:12:01.788Z,1008.17
2018-03-20T03:13:01.760Z,1008.09
2018-03-20T03:14:01.718Z,1008.07
2018-03-20T03:15:01.687Z,1008.06
2018-03-20T03:16:01.656Z,1008.13
2018-03-20T03:17:01.624Z,1008.07
2018-03-20T03:18:01.596Z,1008.14
2018-03-20T03:19:01.562Z,1008.15
2018-03-20T03:20:01.531Z,1008.08
2018-03-20T03:21:01.497Z,1008.12
2018-03-20T03:22:01.470Z,1008.15
2018-03-20T03:23:01.457Z,1008.08
2018-03-20T03:24:01.406Z,1008.05
2018-03-20T03:25:01.375Z,1008.11
2018-03-20T03:26:01.342Z,1008.01
2018-03-20T03:27:01.314Z,1008.08
2018-03-20T03:28:01.286Z,1008.09
2018-03-20T03:29:01.252Z,1008.08
2018-03-20T03:30:01.216Z,1008.12
2018-03-20T03:31:01.193Z,1008.13
2018-03-20T03:32:01.161Z,1008.10
2018-03-20T03:33:01.124Z,1008.15
2018-03-20T03:34:01.094Z,1008.14
2018-03-20T03:35:01.060Z,1008.17
2018-03-20T03:36:01.031Z,1008.16
2018-03-20T03:37:01.004Z,1008.16
2018-03-20T03:38:00.969Z,1008.19
2018-03-20T03:39:00.942Z,1008.23
2018-03-20T03:40:00.909Z,1008.18
2018-03-20T03:41:00.885Z,1008.20
2018-03-20T03:42:00.844Z,1008.21
2018-03-20T03:43:00.819Z,1008.23
2018-03-20T03:44:00.779Z,1008.10
2018-03-20T03:45:00.751Z,1008.18
2018-03-20T03:46:00.724Z,1008.19
2018-03-20T03:47:00.689Z,1008.19
2018-03-20T03:48:00.651Z,1008.20
2018-03-20T03:49:00.625Z,1008.21
2018-03-20T03:50:00.600Z,1008.14
2018-03-20T03:51:00.558Z,1008.26
2018-03-20T03:52:00.528Z,1008.28
2018-03-20T03:53:00.500Z,1008.23
2018-03-20T03:54:00.468Z,1008.29
2018-03-20T03:55:00.436Z,1008.22
2018-03-20T03:56:00.404Z,1008.25
2018-03-20T03:57:00.372Z,1008.30
2018-03-20T03:58:00.340Z,1008.35
2018-03-20T03:59:00.308Z,1008.32
2018-03-20T04:00:00.279Z,1008.33
2018-03-20T04:01:00.253Z,1008.35
2018-03-20T04:02:00.226Z,1008.37
2018-03-20T04:03:00.186Z,1008.40
2018-03-20T04:04:00.157Z,1008.39
2018-03-20T04:05:00.119Z,1008.43
2018-03-20T04:06:00.090Z,1008.48
2018-03-20T04:07:00.061Z,1008.50
2018-03-20T04:08:00.037Z,1008.58
2018-03-20T04:09:00.002Z,1008.55
2018-03-20T04:09:59.966Z,1008.60
2018-03-20T04:10:59.937Z,1008.48
2018-03-20T04:11:59.900Z,1008.49
2018-03-20T04:12:59.872Z,1008.54
2018-03-20T04:13:59.843Z,1008.59
2018-03-20T04:14:59.809Z,1008.53
2018-03-20T04:15:59.784Z,1008.60
2018-03-20T04:16:59.751Z,1008.44
2018-03-20T04:17:59.712Z,1008.58
2018-03-20T04:18:59.684Z,1008.62
2018-03-20T04:19:59.648Z,1008.70
2018-03-20T04:20:59.623Z,1008.66
2018-03-20T04:21:59.589Z,1008.81
2018-03-20T04:22:59.556Z,1008.78
2018-03-20T04:23:59.523Z,1008.83
2018-03-20T04:24:59.499Z,1008.78
2018-03-20T04:25:59.459Z,1008.85
2018-03-20T04:26:59.431Z,1008.82
2018-03-20T04:27:59.397Z,1008.85
2018-03-20T04:28:59.365Z,1008.82
2018-03-20T04:29:59.337Z,1008.72
2018-03-20T04:30:59.300Z,1008.75
2018-03-20T04:31:59.271Z,1008.91
2018-03-20T04:32:59.241Z,1008.66
2018-03-20T04:33:59.211Z,1008.87
2018-03-20T04:34:59.178Z,1008.70
2018-03-20T04:35:59.148Z,1008.86
2018-03-20T04:36:59.109Z,1008.88
2018-03-20T04:37:59.083Z,1008.89
2018-03-20T04:38:59.061Z,1009.04
2018-03-20T04:39:59.015Z,1008.96
2018-03-20T04:40:58.984Z,1008.90
2018-03-20T04:41:58.955Z,1008.99
2018-03-20T04:42:58.921Z,1008.88
2018-03-20T04:43:58.885Z,1008.96
2018-03-20T04:44:58.865Z,1008.95
2018-03-20T04:45:58.824Z,1009.03
2018-03-20T04:46:58.790Z,1009.00
2018-03-20T04:47:58.757Z,1008.97
2018-03-20T04:48:58.731Z,1009.00
2018-03-20T04:49:58.701Z,1009.03
2018-03-20T04:50:58.673Z,1008.99
2018-03-20T04:51:58.633Z,1009.03
2018-03-20T04:52:58.605Z,1009.10
2018-03-20T04:53:58.568Z,1009.10
2018-03-20T04:54:58.537Z,1009.05
2018-03-20T04:55:58.510Z,1009.14
2018-03-20T04:56:58.481Z,1009.26
2018-03-20T04:57:58.445Z,1009.16
2018-03-20T04:58:58.409Z,1009.13
2018-03-20T04:59:58.378Z,1009.12
2018-03-20T05:00:58.344Z,1009.18
2018-03-20T05:01:58.318Z,1009.20
2018-03-20T05:02:58.288Z,1009.31
2018-03-20T05:03:58.258Z,1009.23
2018-03-20T05:04:58.222Z,1009.32
2018-03-20T05:05:58.192Z,1009.32
2018-03-20T05:06:58.155Z,1009.24
2018-03-20T05:07:58.125Z,1009.29
2018-03-20T05:08:58.096Z,1009.31
2018-03-20T05:09:58.069Z,1009.31
2018-03-20T05:10:58.034Z,1009.33
2018-03-20T05:11:57.996Z,1009.36
2018-03-20T05:12:57.970Z,1009.33
2018-03-20T05:13:57.940Z,1009.20
2018-03-20T05:14:57.902Z,1009.31
2018-03-20T05:15:57.873Z,1009.21
2018-03-20T05:16:57.846Z,1009.30
2018-03-20T05:17:57.813Z,1009.32
2018-03-20T05:18:57.775Z,1009.55
2018-03-20T05:19:57.748Z,1009.43
2018-03-20T05:20:57.718Z,1009.59
2018-03-20T05:21:57.679Z,1009.36
2018-03-20T05:22:57.657Z,1009.42
2018-03-20T05:23:57.616Z,1009.45
2018-03-20T05:24:57.593Z,1009.58
2018-03-20T05:25:57.552Z,1009.62
2018-03-20T05:26:57.525Z,1009.58
2018-03-20T05:27:57.488Z,1009.55
2018-03-20T05:28:57.469Z,1009.73
2018-03-20T05:29:57.430Z,1009.70
2018-03-20T05:30:57.401Z,1009.56
2018-03-20T05:31:57.362Z,1009.47
2018-03-20T05:32:57.336Z,1009.68
2018-03-20T05:33:57.309Z,1009.80
2018-03-20T05:34:57.271Z,1009.79
2018-03-20T05:35:57.239Z,1009.97
2018-03-20T05:36:57.210Z,1009.64
2018-03-20T05:37:57.171Z,1009.78
2018-03-20T05:38:57.141Z,1009.88
2018-03-20T05:39:57.116Z,1009.82
2018-03-20T05:40:57.081Z,1009.92
2018-03-20T05:41:57.046Z,1009.88
2018-03-20T05:42:57.018Z,1010.04
2018-03-20T05:43:56.982Z,1009.81
2018-03-20T05:44:56.962Z,1009.72
2018-03-20T05:45:56.931Z,1009.98
2018-03-20T05:46:56.894Z,1009.99
2018-03-20T05:47:56.864Z,1009.97
2018-03-20T05:48:56.822Z,1010.07
2018-03-20T05:49:56.801Z,1010.00
2018-03-20T05:50:56.767Z,1010.12
2018-03-20T05:51:56.730Z,1010.22
2018-03-20T05:52:56.698Z,1010.03
2018-03-20T05:53:56.674Z,1010.20
2018-03-20T05:54:56.637Z,1010.20
2018-03-20T05:55:56.613Z,1010.15
2018-03-20T05:56:56.571Z,1010.32
2018-03-20T05:57:56.548Z,1010.37
2018-03-20T05:58:56.510Z,1010.37
2018-03-20T05:59:56.509Z,1010.48
2018-03-20T06:00:56.450Z,1010.41
2018-03-20T06:01:56.420Z,1010.46
2018-03-20T06:02:56.381Z,1010.48
2018-03-20T06:03:56.358Z,1010.51
2018-03-20T06:04:56.330Z,1010.48
2018-03-20T06:05:56.294Z,1010.08
2018-03-20T06:06:56.257Z,1010.66
2018-03-20T06:07:56.229Z,1010.57
2018-03-20T06:08:56.191Z,1010.64
2018-03-20T06:09:56.163Z,1010.74
2018-03-20T06:10:56.131Z,1010.64
2018-03-20T06:11:56.106Z,1010.66
2018-03-20T06:12:56.068Z,1010.69
2018-03-20T06:13:56.042Z,1010.73
2018-03-20T06:14:56.005Z,1010.76
2018-03-20T06:15:55.975Z,1010.82
2018-03-20T06:16:55.942Z,1010.87
2018-03-20T06:17:55.913Z,1010.77
2018-03-20T06:18:55.891Z,1010.92
2018-03-20T06:19:55.860Z,1010.99
2018-03-20T06:20:55.817Z,1011.00
2018-03-20T06:21:55.849Z,1011.04
2018-03-20T06:22:55.756Z,1010.96
2018-03-20T06:23:55.727Z,1011.08
2018-03-20T06:24:55.694Z,1011.14
2018-03-20T06:25:55.664Z,1011.20
2018-03-20T06:26:55.640Z,1011.25
2018-03-20T06:27:55.602Z,1011.22
2018-03-20T06:28:55.568Z,1011.12
2018-03-20T06:29:55.534Z,1011.23
2018-03-20T06:30:55.509Z,1011.28
2018-03-20T06:31:55.474Z,1011.26
2018-03-20T06:32:55.445Z,1011.23
2018-03-20T06:33:55.408Z,1011.38
2018-03-20T06:34:55.376Z,1011.46
2018-03-20T06:35:55.350Z,1011.40
2018-03-20T06:36:55.340Z,1011.45
2018-03-20T06:37:55.285Z,1011.47
2018-03-20T06:38:55.256Z,1011.46
2018-03-20T06:39:55.229Z,1011.54
2018-03-20T06:40:55.198Z,1011.38
2018-03-20T06:41:55.165Z,1011.51
2018-03-20T06:42:55.131Z,1011.47
2018-03-20T06:43:55.095Z,1011.64
2018-03-20T06:44:55.071Z,1011.57
2018-03-20T06:45:55.037Z,1011.61
2018-03-20T06:46:55.014Z,1011.65
2018-03-20T06:47:54.972Z,1011.58
2018-03-20T06:48:54.945Z,1011.72
2018-03-20T06:49:54.913Z,1011.72
2018-03-20T06:50:54.892Z,1011.61
2018-03-20T06:51:54.847Z,1011.78
2018-03-20T06:52:54.819Z,1011.84
2018-03-20T06:53:54.794Z,1011.65
2018-03-20T06:54:54.755Z,1011.77
2018-03-20T06:55:54.728Z,1011.78
2018-03-20T06:56:54.705Z,1011.93
2018-03-20T06:57:54.662Z,1012.26
2018-03-20T06:58:54.640Z,1012.04
2018-03-20T06:59:54.600Z,1012.02
2018-03-20T07:00:54.570Z,1012.04
2018-03-20T07:01:54.541Z,1012.14
2018-03-20T07:02:54.525Z,1012.24
2018-03-20T07:03:54.483Z,1012.22
2018-03-20T07:04:54.447Z,1012.22
2018-03-20T07:05:54.417Z,1012.09
2018-03-20T07:06:54.407Z,1012.25
2018-03-20T07:07:54.365Z,1012.22
2018-03-20T07:08:54.334Z,1012.28
2018-03-20T07:09:54.316Z,1012.11
2018-03-20T07:10:54.271Z,1012.23
2018-03-20T07:11:54.237Z,1012.09
2018-03-20T07:12:54.213Z,1012.17
2018-03-20T07:13:54.188Z,1012.31
2018-03-20T07:14:54.146Z,1012.38
2018-03-20T07:15:54.130Z,1012.34
2018-03-20T07:16:54.088Z,1013.11
2018-03-20T07:17:54.061Z,1012.52
2018-03-20T07:18:54.034Z,1013.31
2018-03-20T07:19:54.003Z,1013.35
2018-03-20T07:20:53.971Z,1013.40
2018-03-20T07:21:53.941Z,1013.36
2018-03-20T07:22:53.920Z,1013.42
2018-03-20T07:23:53.889Z,1013.43
2018-03-20T07:24:53.850Z,1013.66
2018-03-20T07:25:53.819Z,1012.74
2018-03-20T07:26:53.791Z,1013.76
2018-03-20T07:27:53.760Z,1013.65
2018-03-20T07:28:53.733Z,1012.69
2018-03-20T07:29:53.712Z,1014.00
2018-03-20T07:30:53.680Z,1013.83
2018-03-20T07:31:53.688Z,1013.04
2018-03-20T07:32:53.618Z,1012.66
2018-03-20T07:33:53.595Z,1013.49
2018-03-20T07:34:53.565Z,1013.26
2018-03-20T07:35:53.535Z,1012.93
2018-03-20T07:36:53.512Z,1014.28
2018-03-20T07:37:53.481Z,1012.87
2018-03-20T07:38:53.457Z,1012.70
2018-03-20T07:39:53.446Z,1014.23
2018-03-20T07:40:53.402Z,1013.17
2018-03-20T07:41:53.367Z,1013.89
2018-03-20T07:42:53.345Z,1013.12
2018-03-20T07:43:53.315Z,1012.94
2018-03-20T07:44:53.283Z,1014.66
2018-03-20T07:45:53.255Z,1013.79
2018-03-20T07:46:53.233Z,1013.12
2018-03-20T07:47:53.198Z,1013.16
2018-03-20T07:48:53.173Z,1012.95
2018-03-20T07:49:53.147Z,1014.68
2018-03-20T07:50:53.113Z,1014.65
2018-03-20T07:51:53.084Z,1014.62
2018-03-20T07:52:53.054Z,1014.85
2018-03-20T07:53:53.029Z,1014.86
2018-03-20T07:54:53.000Z,1014.83
2018-03-20T07:55:52.970Z,1014.87
2018-03-20T07:56:52.944Z,1014.95
2018-03-20T07:57:52.923Z,1014.96
2018-03-20T07:58:52.899Z,1015.01
2018-03-20T07:59:52.865Z,1014.94
2018-03-20T08:00:52.832Z,1014.95
2018-03-20T08:01:52.809Z,1015.00
2018-03-20T08:02:52.790Z,1015.07
2018-03-20T08:03:52.757Z,1014.99
2018-03-20T08:04:52.724Z,1014.98
2018-03-20T08:05:52.704Z,1014.99
2018-03-20T08:06:52.681Z,1015.20
2018-03-20T08:07:52.695Z,1015.06
2018-03-20T08:08:52.635Z,1015.25
2018-03-20T08:09:52.603Z,1015.17
2018-03-20T08:10:52.573Z,1014.69
2018-03-20T08:11:52.546Z,1015.25
2018-03-20T08:12:52.522Z,1015.26
2018-03-20T08:13:52.492Z,1015.27
2018-03-20T08:14:52.467Z,1015.44
2018-03-20T08:15:52.451Z,1015.45
2018-03-20T08:16:52.414Z,1015.47
2018-03-20T08:17:52.395Z,1015.51
2018-03-20T08:18:52.362Z,1014.10
2018-03-20T08:19:52.339Z,1013.81
2018-03-20T08:20:52.310Z,1015.50
2018-03-20T08:21:52.287Z,1015.60
2018-03-20T08:22:52.261Z,1015.63
2018-03-20T08:23:52.233Z,1015.64
2018-03-20T08:24:52.205Z,1015.59
2018-03-20T08:25:52.178Z,1015.75
2018-03-20T08:26:52.153Z,1015.79
2018-03-20T08:27:52.157Z,1015.91
2018-03-20T08:28:52.111Z,1015.95
2018-03-20T08:29:52.081Z,1015.93
2018-03-20T08:30:52.109Z,1015.98
2018-03-20T08:31:52.031Z,1016.10
2018-03-20T08:32:52.008Z,1014.25
2018-03-20T08:33:51.995Z,1016.32
2018-03-20T08:34:51.956Z,1014.85
2018-03-20T08:35:51.940Z,1016.46
2018-03-20T08:36:51.924Z,1016.57
2018-03-20T08:37:51.880Z,1016.73
2018-03-20T08:38:51.859Z,1016.67
2018-03-20T08:39:51.828Z,1016.63
2018-03-20T08:40:51.804Z,1016.81
2018-03-20T08:41:51.777Z,1016.90
2018-03-20T08:42:51.754Z,1016.76
2018-03-20T08:43:51.728Z,1016.83
2018-03-20T08:44:51.706Z,1016.99
2018-03-20T08:45:51.726Z,1016.92
2018-03-20T08:46:51.657Z,1016.96
2018-03-20T08:47:51.668Z,1017.22
2018-03-20T08:48:51.604Z,1017.24
2018-03-20T08:49:51.585Z,1017.28
2018-03-20T08:50:51.557Z,1017.55
2018-03-20T08:51:51.543Z,1017.68
2018-03-20T08:52:51.507Z,1017.60
2018-03-20T08:53:51.489Z,1017.89
2018-03-20T08:54:51.459Z,1017.89
2018-03-20T08:55:51.440Z,1018.53
2018-03-20T08:56:51.413Z,1019.24
2018-03-20T08:57:51.390Z,1018.08
2018-03-20T08:58:51.368Z,1016.74
2018-03-20T08:59:51.338Z,1016.07
2018-03-20T09:00:51.315Z,1015.81
2018-03-20T09:01:51.299Z,1015.56
2018-03-20T09:02:51.275Z,1015.45
2018-03-20T09:03:51.249Z,1015.45
2018-03-20T09:04:51.224Z,1015.46
2018-03-20T09:05:51.204Z,1015.43
2018-03-20T09:06:51.171Z,1015.39
2018-03-20T09:07:51.149Z,1015.02
2018-03-20T09:08:51.128Z,1015.12
2018-03-20T09:09:51.100Z,1015.13
2018-03-20T09:10:51.075Z,1015.14
2018-03-20T09:11:51.055Z,1015.17
2018-03-20T09:12:51.026Z,1015.10
2018-03-20T09:13:51.006Z,1015.19
2018-03-20T09:14:50.977Z,1015.05
2018-03-20T09:15:50.984Z,1015.09
2018-03-20T09:16:50.928Z,1015.13
2018-03-20T09:17:50.964Z,1014.95
2018-03-20T09:18:50.884Z,1014.97
2018-03-20T09:19:50.863Z,1015.02
2018-03-20T09:20:50.838Z,1015.04
2018-03-20T09:21:50.812Z,1014.98
2018-03-20T09:22:50.787Z,1015.01
2018-03-20T09:23:50.764Z,1015.11
2018-03-20T09:24:50.739Z,1015.09
2018-03-20T09:25:50.716Z,1015.16
2018-03-20T09:26:50.690Z,1015.11
2018-03-20T09:27:50.661Z,1015.25
2018-03-20T09:28:50.642Z,1015.16
2018-03-20T09:29:50.668Z,1015.05
2018-03-20T09:30:50.594Z,1015.20
2018-03-20T09:31:50.567Z,1015.24
2018-03-20T09:32:50.546Z,1015.12
2018-03-20T09:33:50.521Z,1015.15
2018-03-20T09:34:50.495Z,1015.30
2018-03-20T09:35:50.477Z,1015.41
2018-03-20T09:36:50.443Z,1015.35
2018-03-20T09:37:50.429Z,1015.44
2018-03-20T09:38:50.395Z,1015.28
2018-03-20T09:39:50.377Z,1015.27
2018-03-20T09:40:50.353Z,1015.37
2018-03-20T09:41:50.325Z,1015.38
2018-03-20T09:42:50.302Z,1015.25
2018-03-20T09:43:50.281Z,1015.42
2018-03-20T09:44:50.255Z,1015.16
2018-03-20T09:45:50.230Z,1015.40
2018-03-20T09:46:50.219Z,1015.67
2018-03-20T09:47:50.182Z,1015.65
2018-03-20T09:48:50.163Z,1015.66
2018-03-20T09:49:50.136Z,1015.67
2018-03-20T09:50:50.107Z,1015.82
2018-03-20T09:51:50.080Z,1015.87
2018-03-20T09:52:50.057Z,1015.66
2018-03-20T09:53:50.041Z,1015.39
2018-03-20T09:54:50.018Z,1015.68
2018-03-20T09:55:49.987Z,1015.81
2018-03-20T09:56:49.959Z,1015.74
2018-03-20T09:57:49.941Z,1015.87
2018-03-20T09:58:49.920Z,1015.82
2018-03-20T09:59:49.894Z,1015.92
2018-03-20T10:00:49.864Z,1015.94
2018-03-20T10:01:49.850Z,1015.68
2018-03-20T10:02:49.820Z,1015.97
2018-03-20T10:03:49.796Z,1015.88
2018-03-20T10:04:49.770Z,1016.02
2018-03-20T10:05:49.752Z,1016.07
2018-03-20T10:06:49.733Z,1015.97
2018-03-20T10:07:49.706Z,1015.96
2018-03-20T10:08:49.679Z,1015.88
2018-03-20T10:09:49.657Z,1015.99
2018-03-20T10:10:49.644Z,1016.06
2018-03-20T10:11:49.609Z,1016.01
2018-03-20T10:12:49.587Z,1016.05
2018-03-20T10:13:49.574Z,1016.11
2018-03-20T10:14:49.550Z,1016.02
2018-03-20T10:15:49.528Z,1016.05
2018-03-20T10:16:49.505Z,1016.19
2018-03-20T10:17:49.480Z,1015.97
2018-03-20T10:18:49.460Z,1016.21
2018-03-20T10:19:49.470Z,1016.04
2018-03-20T10:20:49.409Z,1016.31
2018-03-20T10:21:49.388Z,1016.35
2018-03-20T10:22:49.368Z,1016.37
2018-03-20T10:23:49.341Z,1016.39
2018-03-20T10:24:49.342Z,1016.33
2018-03-20T10:25:49.372Z,1016.40
2018-03-20T10:26:49.286Z,1016.18
2018-03-20T10:27:49.251Z,1015.97
2018-03-20T10:28:49.229Z,1016.29
2018-03-20T10:29:49.227Z,1016.39
2018-03-20T10:30:49.183Z,1016.31
2018-03-20T10:31:49.158Z,1016.36
2018-03-20T10:32:49.142Z,1016.31
2018-03-20T10:33:49.121Z,1016.45
2018-03-20T10:34:49.090Z,1016.34
2018-03-20T10:35:49.070Z,1016.55
2018-03-20T10:36:49.047Z,1016.37
2018-03-20T10:37:49.027Z,1016.42
2018-03-20T10:38:49.002Z,1016.42
2018-03-20T10:39:48.976Z,1016.21
2018-03-20T10:40:48.965Z,1016.35
2018-03-20T10:41:48.995Z,1016.45
2018-03-20T10:42:48.957Z,1016.37
2018-03-20T10:43:48.950Z,1016.18
2018-03-20T10:44:48.866Z,1016.52
2018-03-20T10:45:48.848Z,1016.50
2018-03-20T10:46:48.817Z,1016.47
2018-03-20T10:47:48.800Z,1016.50
2018-03-20T10:48:48.770Z,1016.51
2018-03-20T10:49:48.752Z,1016.50
2018-03-20T10:50:48.740Z,1016.56
2018-03-20T10:51:48.716Z,1016.50
2018-03-20T10:52:48.688Z,1016.73
2018-03-20T10:53:48.665Z,1016.67
2018-03-20T10:54:48.635Z,1016.69
2018-03-20T10:55:48.633Z,1016.75
2018-03-20T10:56:48.590Z,1016.84
2018-03-20T10:57:48.569Z,1016.91
2018-03-20T10:58:48.549Z,1016.96
2018-03-20T10:59:48.537Z,1017.07
2018-03-20T11:00:48.502Z,1017.19
2018-03-20T11:01:48.472Z,1017.23
2018-03-20T11:02:48.460Z,1017.22
2018-03-20T11:03:48.436Z,1017.37
2018-03-20T11:04:48.406Z,1017.36
2018-03-20T11:05:48.392Z,1017.33
2018-03-20T11:06:48.863Z,1017.54
2018-03-20T11:07:48.342Z,1017.49
2018-03-20T11:08:48.333Z,1017.63
2018-03-20T11:09:48.322Z,1017.56
2018-03-20T11:10:48.305Z,1017.67
2018-03-20T11:11:48.285Z,1017.80
2018-03-20T11:12:48.317Z,1017.76
2018-03-20T11:13:48.266Z,1018.37
2018-03-20T11:14:48.215Z,1018.58
2018-03-20T11:15:48.220Z,1018.89
2018-03-20T11:16:48.146Z,1019.08
2018-03-20T11:17:48.132Z,1019.44
2018-03-20T11:18:48.097Z,1019.42
2018-03-20T11:19:48.079Z,1019.28
2018-03-20T11:20:48.054Z,1019.52
2018-03-20T11:21:48.028Z,1019.43
2018-03-20T11:22:48.012Z,1019.43
2018-03-20T11:23:47.986Z,1019.49
2018-03-20T11:24:47.969Z,1019.52
2018-03-20T11:25:47.942Z,1019.56
2018-03-20T11:26:47.924Z,1019.59
2018-03-20T11:27:47.899Z,1019.51
2018-03-20T11:28:47.877Z,1019.55
2018-03-20T11:29:47.853Z,1019.48
2018-03-20T11:30:47.830Z,1019.46
2018-03-20T11:31:47.809Z,1019.42
2018-03-20T11:32:47.788Z,1019.41
2018-03-20T11:33:47.770Z,1019.42
2018-03-20T11:34:47.743Z,1019.38
2018-03-20T11:35:47.729Z,1019.48
2018-03-20T11:36:47.701Z,1019.54
2018-03-20T11:37:47.682Z,1019.50
2018-03-20T11:38:47.673Z,1019.48
2018-03-20T11:39:47.631Z,1019.64
2018-03-20T11:40:47.616Z,1019.55
2018-03-20T11:41:47.596Z,1019.67
2018-03-20T11:42:47.573Z,1019.63
2018-03-20T11:43:47.557Z,1019.66
2018-03-20T11:44:47.526Z,1019.92
2018-03-20T11:45:47.510Z,1019.78
2018-03-20T11:46:47.488Z,1019.71
2018-03-20T11:47:47.467Z,1020.00
2018-03-20T11:48:47.446Z,1020.03
2018-03-20T11:49:47.419Z,1020.09
2018-03-20T11:50:47.401Z,1020.21
2018-03-20T11:51:47.377Z,1020.27
2018-03-20T11:52:47.358Z,1020.19
2018-03-20T11:53:47.339Z,1020.20
2018-03-20T11:54:47.324Z,1019.98
2018-03-20T11:55:47.300Z,1020.18
2018-03-20T11:56:47.285Z,1020.18
2018-03-20T11:57:47.251Z,1020.23
2018-03-20T11:58:47.237Z,1020.08
2018-03-20T11:59:47.207Z,1020.23
2018-03-20T12:00:47.186Z,1020.20
2018-03-20T12:01:47.173Z,1020.15
2018-03-20T12:02:47.155Z,1020.25
2018-03-20T12:03:47.127Z,1020.32
2018-03-20T12:04:47.363Z,1020.14